createdAt,value
2022-10-30T00:00:02.192Z,17.24
2022-10-30T00:07:01.661Z,17.24
2022-10-30T00:14:01.804Z,17.23
2022-10-30T00:28:01.885Z,17.14
2022-10-30T00:35:02.195Z,17.14
2022-10-30T00:42:01.361Z,17.06
2022-10-30T00:49:01.807Z,16.96
2022-10-30T00:56:01.472Z,16.96
2022-10-30T01:00:02.021Z,16.96
2022-10-30T01:07:02.116Z,16.92
2022-10-30T01:14:01.978Z,16.92
2022-10-30T01:21:01.432Z,16.84
2022-10-30T01:28:01.901Z,16.78
2022-10-30T01:35:01.760Z,16.78
2022-10-30T01:42:01.748Z,16.65
2022-10-30T01:49:01.673Z,16.65
2022-10-30T01:56:01.445Z,16.53
2022-10-30T02:00:02.084Z,16.53
2022-10-30T02:07:01.804Z,16.52
2022-10-30T02:14:01.965Z,16.52
2022-10-30T02:21:02.162Z,16.42
2022-10-30T02:28:02.346Z,16.42
2022-10-30T02:35:01.852Z,16.36
2022-10-30T02:42:01.876Z,16.36
2022-10-30T02:49:01.389Z,16.28
2022-10-30T02:56:01.745Z,16.28
2022-10-30T03:00:02.513Z,16.19
2022-10-30T03:07:01.595Z,16.19
2022-10-30T03:14:01.390Z,16.13
2022-10-30T03:21:01.618Z,16.13
2022-10-30T03:28:02.227Z,16.02
2022-10-30T03:35:01.861Z,16.02
2022-10-30T03:42:01.554Z,15.99
2022-10-30T03:49:02.035Z,15.86
2022-10-30T03:56:02.293Z,15.86
2022-10-30T04:00:01.890Z,15.86
2022-10-30T04:07:02.130Z,15.78
2022-10-30T04:14:01.545Z,15.78
2022-10-30T04:21:01.836Z,15.7
2022-10-30T04:28:01.759Z,15.58
2022-10-30T04:35:02.247Z,15.58
2022-10-30T04:42:01.897Z,15.52
2022-10-30T04:49:01.918Z,15.52
2022-10-30T04:56:02.217Z,15.42
2022-10-30T05:00:01.837Z,15.42
2022-10-30T05:07:01.437Z,15.29
2022-10-30T05:14:01.948Z,15.29
2022-10-30T05:21:01.958Z,15.22
2022-10-30T05:28:01.812Z,15.22
2022-10-30T05:35:01.784Z,15.17
2022-10-30T05:42:02.079Z,15.17
2022-10-30T05:49:01.344Z,15.11
2022-10-30T05:56:02.259Z,15.11
2022-10-30T06:00:01.848Z,15.07
2022-10-30T06:07:01.678Z,15.07
2022-10-30T06:14:02.241Z,14.98
2022-10-30T06:21:01.462Z,14.98
2022-10-30T06:28:02.163Z,14.86
2022-10-30T06:35:02.186Z,14.86
2022-10-30T06:42:01.409Z,14.75
2022-10-30T06:49:02.315Z,14.67
2022-10-30T06:56:01.722Z,14.67
2022-10-30T07:00:02.589Z,14.67
2022-10-30T07:07:01.852Z,14.61
2022-10-30T07:14:01.393Z,14.62
2022-10-30T07:21:02.088Z,14.62
2022-10-30T07:28:02.544Z,14.63
2022-10-30T07:35:02.296Z,14.63
2022-10-30T07:42:02.341Z,14.64
2022-10-30T07:49:01.520Z,14.64
2022-10-30T07:56:01.490Z,14.71
2022-10-30T08:00:04.414Z,14.71
2022-10-30T08:07:01.976Z,14.75
2022-10-30T08:14:02.178Z,14.75
2022-10-30T08:21:01.893Z,14.86
2022-10-30T08:28:01.680Z,14.86
2022-10-30T08:35:02.288Z,14.97
2022-10-30T08:42:02.277Z,14.97
2022-10-30T08:49:01.537Z,15.07
2022-10-30T08:56:01.926Z,15.07
2022-10-30T09:00:02.566Z,15.17
2022-10-30T09:07:01.539Z,15.17
2022-10-30T09:14:01.811Z,15.3
2022-10-30T09:21:04.774Z,15.3
2022-10-30T09:28:01.569Z,15.47
2022-10-30T09:35:01.620Z,15.47
2022-10-30T09:42:01.800Z,15.61
2022-10-30T09:49:01.649Z,15.77
2022-10-30T09:56:02.146Z,15.77
2022-10-30T10:00:01.727Z,15.77
2022-10-30T10:07:01.373Z,15.93
2022-10-30T10:14:02.304Z,16.06
2022-10-30T10:21:01.682Z,16.06
2022-10-30T10:28:01.884Z,16.22
2022-10-30T10:35:01.831Z,16.22
2022-10-30T10:42:01.702Z,16.36
2022-10-30T10:49:02.041Z,16.36
2022-10-30T10:56:02.263Z,16.5
2022-10-30T11:00:01.920Z,16.5
2022-10-30T11:07:02.315Z,16.66
2022-10-30T11:14:02.260Z,16.66
2022-10-30T11:21:01.495Z,16.8
2022-10-30T11:28:01.375Z,16.8
2022-10-30T11:35:02.078Z,16.94
2022-10-30T11:42:01.625Z,16.94
2022-10-30T11:49:01.462Z,17.07
2022-10-30T11:56:01.782Z,17.07
2022-10-30T12:00:05.574Z,17.18
2022-10-30T12:07:01.619Z,17.18
2022-10-30T12:14:01.661Z,17.27
2022-10-30T12:21:02.336Z,17.27
2022-10-30T12:28:01.865Z,17.38
2022-10-30T12:35:02.281Z,17.38
2022-10-30T12:42:01.601Z,17.41
2022-10-30T12:49:02.169Z,17.52
2022-10-30T12:56:01.985Z,17.52
2022-10-30T13:00:01.495Z,17.52
2022-10-30T13:07:01.964Z,17.64
2022-10-30T13:14:02.118Z,17.64
2022-10-30T13:21:01.892Z,17.73
2022-10-30T13:28:01.378Z,17.79
2022-10-30T13:35:01.576Z,17.79
2022-10-30T13:42:01.964Z,17.8
2022-10-30T13:49:01.906Z,17.8
2022-10-30T13:56:01.716Z,17.72
2022-10-30T14:00:02.325Z,17.72
2022-10-30T14:07:02.296Z,17.73
2022-10-30T14:14:01.619Z,17.73
2022-10-30T14:21:01.517Z,17.74
2022-10-30T14:28:02.109Z,17.74
2022-10-30T14:35:02.414Z,17.71
2022-10-30T14:42:01.439Z,17.71
2022-10-30T14:49:02.293Z,17.68
2022-10-30T14:56:02.121Z,17.68
2022-10-30T15:00:01.801Z,17.7
2022-10-30T15:07:02.039Z,17.7
2022-10-30T15:14:01.346Z,17.65
2022-10-30T15:21:01.624Z,17.65
2022-10-30T15:28:02.183Z,17.64
2022-10-30T15:35:02.178Z,17.64
2022-10-30T15:42:01.689Z,17.55
2022-10-30T15:49:01.615Z,17.55
2022-10-30T15:56:01.937Z,17.55
2022-10-30T16:00:02.722Z,17.55
2022-10-30T16:07:01.723Z,17.46
2022-10-30T16:14:01.721Z,17.4
2022-10-30T16:21:01.507Z,17.4
2022-10-30T16:28:02.561Z,17.36
2022-10-30T16:35:02.389Z,17.36
2022-10-30T16:42:02.026Z,17.23
2022-10-30T16:49:01.327Z,17.23
2022-10-30T16:56:01.752Z,17.16
2022-10-30T17:00:02.415Z,17.16
2022-10-30T17:07:01.561Z,17.1
2022-10-30T17:14:01.490Z,17.1
2022-10-30T17:21:02.223Z,17.01
2022-10-30T17:28:01.497Z,17.01
2022-10-30T17:35:02.491Z,16.93
2022-10-30T17:42:01.390Z,16.93
2022-10-30T17:49:01.816Z,16.82
2022-10-30T17:56:02.133Z,16.82
2022-10-30T18:00:01.805Z,16.75
2022-10-30T18:07:01.818Z,16.75
2022-10-30T18:14:02.303Z,16.66
2022-10-30T18:21:02.206Z,16.66
2022-10-30T18:28:02.030Z,16.46
2022-10-30T18:35:01.662Z,16.46
2022-10-30T18:42:02.243Z,16.53
2022-10-30T18:49:01.459Z,16.37
2022-10-30T18:56:01.590Z,16.37
2022-10-30T19:00:02.208Z,16.37
2022-10-30T19:07:01.438Z,16.32
2022-10-30T19:14:01.507Z,16.16
2022-10-30T19:21:04.962Z,16.16
2022-10-30T19:28:02.142Z,16.15
2022-10-30T19:35:02.075Z,16.15
2022-10-30T19:42:02.039Z,16.22
2022-10-30T19:49:01.687Z,16.22
2022-10-30T19:56:01.826Z,16.15
2022-10-30T20:00:02.526Z,16.15
2022-10-30T20:07:02.591Z,16.08
2022-10-30T20:14:02.310Z,16.08
2022-10-30T20:21:01.951Z,16.01
2022-10-30T20:28:05.683Z,16.01
2022-10-30T20:35:06.169Z,15.95
2022-10-30T20:42:01.449Z,15.95
2022-10-30T20:49:16.771Z,15.89
2022-10-30T20:56:01.448Z,15.89
2022-10-30T21:00:01.984Z,15.79
2022-10-30T21:07:02.252Z,15.79
2022-10-30T21:14:01.761Z,15.7
2022-10-30T21:21:02.332Z,15.7
2022-10-30T21:28:01.400Z,15.63
2022-10-30T21:35:01.679Z,15.59
2022-10-30T21:42:02.065Z,15.59
2022-10-30T21:49:02.113Z,15.53
2022-10-30T21:56:02.002Z,15.53
2022-10-30T22:00:05.572Z,15.53
2022-10-30T22:07:01.426Z,15.46
2022-10-30T22:14:02.017Z,14.97
2022-10-30T22:21:01.570Z,14.97
2022-10-30T22:28:01.866Z,15.31
2022-10-30T22:35:01.986Z,15.31
2022-10-30T22:42:01.456Z,15.25
2022-10-30T22:49:02.106Z,15.25
2022-10-30T22:56:02.061Z,15.24
2022-10-30T23:00:01.889Z,15.24
2022-10-30T23:07:02.002Z,15.25
2022-10-30T23:14:02.252Z,15.25
2022-10-30T23:21:01.375Z,15.2
2022-10-30T23:28:02.067Z,15.2
2022-10-30T23:35:01.554Z,15.15
2022-10-30T23:42:02.234Z,15.15
2022-10-30T23:49:02.195Z,15.08
2022-10-30T23:56:01.585Z,15.06
